Terminal Aerodrome Forecast
Issued by NWS Sterling, VA

Current Version | Previous Version | Graphics & Text | Print | Product List | Glossary On
Versions: 1 2 3 4 5 6 7 8 9 10 11 12 13 14 15 16 17 18 19 20 21 22 23 24 25 26 27 28 29 30 31 32 33 34 35
221
FTUS41 KLWX 251347 AAA
TAFDCA
TAF AMD
KDCA 251347Z 2514/2618 32006KT 4SM RA BR OVC006 WS020/22035KT
     FM251700 19005KT 3SM -RA BR OVC008 WS020/23035KT
     FM251800 20006KT P6SM OVC015 WS020/24035KT
     FM251900 21009KT P6SM OVC250
     FM252200 25009KT P6SM BKN250
     FM260000 30007KT P6SM BKN250
     FM260800 34006KT P6SM BKN250=

USA.gov is the U.S. government's official web portal to all federal, state and local government web resources and services.